WetterOnline ( https://www.wetteronline.ch )

Wetter aktuell Storlien

Aktuelles Wetter: Storlien-Visjovalen A (585m)

6-stündlich | Neueste Meldungen
Ortszeit Temperatur Wetter
Do, 09.12. 1:00 -5.5° C bewölkt
Mi, 08.12. 19:00 -7.0° C bewölkt
Mi, 08.12. 13:00 -6.5° C wolkenlos
Mi, 08.12. 7:00 -22.5° C wolkenlos
Mi, 08.12. 1:00 -21.4° C bewölkt
Di, 07.12. 19:00 -23.4° C wolkenlos
Di, 07.12. 13:00 -20.6° C wolkenlos
Di, 07.12. 7:00 -19.9° C wolkenlos
Ortszeit Temperatur Wetter
Do, 09.12. 6:00 -4.7° C bedeckt
Do, 09.12. 5:00 -4.7° C bewölkt
Do, 09.12. 4:00 -4.7° C bedeckt
Do, 09.12. 3:00 -6.0° C bewölkt
Do, 09.12. 2:00 -6.7° C bewölkt
Do, 09.12. 1:00 -5.5° C bewölkt
Ortszeit Relative Feuchte Sichtweite
Do, 09.12. 1:00 73% 50 km
Mi, 08.12. 19:00 70% 50 km
Mi, 08.12. 13:00 61% 50 km
Mi, 08.12. 7:00 80% 50 km
Mi, 08.12. 1:00 81% 50 km
Di, 07.12. 19:00 79% 50 km
Di, 07.12. 13:00 80% 50 km
Di, 07.12. 7:00 83% 50 km
Ortszeit Relative Feuchte Sichtweite
Do, 09.12. 6:00 75% 50 km
Do, 09.12. 5:00 67% 50 km
Do, 09.12. 4:00 68% 50 km
Do, 09.12. 3:00 74% 50 km
Do, 09.12. 2:00 76% 50 km
Do, 09.12. 1:00 73% 50 km
Ortszeit Niederschlagsmenge Niederschlagsart
Do, 09.12. 1:00 keine Meldung -
Mi, 08.12. 19:00 0.0 l/m2 in 12 Std. -
Mi, 08.12. 13:00 keine Meldung -
Mi, 08.12. 7:00 0.0 l/m2 in 12 Std. -
Mi, 08.12. 1:00 keine Meldung -
Di, 07.12. 19:00 0.0 l/m2 in 12 Std. -
Di, 07.12. 13:00 keine Meldung -
Di, 07.12. 7:00 0.0 l/m2 in 12 Std. -
Ortszeit Niederschlagsmenge Niederschlagsart
Do, 09.12. 6:00 0.0 l/m2 in 1 Std. -
Do, 09.12. 5:00 0.0 l/m2 in 1 Std. -
Do, 09.12. 4:00 0.0 l/m2 in 1 Std. -
Do, 09.12. 3:00 0.0 l/m2 in 1 Std. -
Do, 09.12. 2:00 0.0 l/m2 in 1 Std. -
Do, 09.12. 1:00 0.0 l/m2 in 1 Std. -
Ortszeit Stärke Spitze Richtung
km/h Bft. km/h Grad Sektor
Do, 09.12. 1:00 13 3 - 120° SO
Mi, 08.12. 19:00 20 4 - 150° SO
Mi, 08.12. 13:00 20 4 - 170° S
Mi, 08.12. 7:00 4 1 7 300° NW
Mi, 08.12. 1:00 0 0 - - -
Di, 07.12. 19:00 2 1 4 280° W
Di, 07.12. 13:00 0 0 7 - -
Di, 07.12. 7:00 4 1 - 280° W
Ortszeit Stärke Spitze Richtung
km/h Bft. km/h Grad Sektor
Do, 09.12. 6:00 11 2 35 130° SO
Do, 09.12. 5:00 14 3 54 150° SO
Do, 09.12. 4:00 20 4 35 160° S
Do, 09.12. 3:00 18 3 40 130° SO
Do, 09.12. 2:00 11 2 43 120° SO
Do, 09.12. 1:00 13 3 39 120° SO
Ortszeit Untergrenze Bedeckung Gattung
total tief tief mittel hoch
Do, 09.12. 1:00 900 m 7/8 7/8 - - -
Mi, 08.12. 19:00 5700 m 7/8 7/8 - - -
Mi, 08.12. 13:00 - 0/8 0/8 - - -
Mi, 08.12. 7:00 - 0/8 0/8 - - -
Mi, 08.12. 1:00 4500 m 7/8 7/8 - - -
Di, 07.12. 19:00 - 0/8 0/8 - - -
Di, 07.12. 13:00 - 0/8 0/8 - - -
Di, 07.12. 7:00 - 0/8 0/8 - - -
Ortszeit Bedeckungsgrad in Achtel und Wolkenuntergrenze
Do, 09.12. 6:00 8(1800m)
Do, 09.12. 5:00 7(2400m) 8(3000m)
Do, 09.12. 4:00 8(2700m)
Do, 09.12. 3:00 2(840m) 7(2400m)
Do, 09.12. 2:00 1(900m) 7(2100m) 7(2400m)
Do, 09.12. 1:00 1(900m) 7(2700m)
Ortszeit Luftdruck NN (hPa) Tendenz (hPa in 3 Std.)
Do, 09.12. 1:00 1012 + 0,2
Mi, 08.12. 19:00 1012 + 0,6
Mi, 08.12. 13:00 1011 + 0,4
Mi, 08.12. 7:00 1013 0,0
Mi, 08.12. 1:00 1013 + 0,1
Di, 07.12. 19:00 1013 + 0,4
Di, 07.12. 13:00 1012 - 0,1
Di, 07.12. 7:00 1012 - 0,4
Ortszeit Luftdruck NN (hPa) Tendenz (hPa in 3 Std.)
Do, 09.12. 6:00 1010 - 1,0
Do, 09.12. 5:00 1011 - 1,4
Do, 09.12. 4:00 1011 - 0,6
Do, 09.12. 3:00 1012 - 0,3
Do, 09.12. 2:00 1012 + 0,6
Do, 09.12. 1:00 1012 + 0,2
Ortszeit Schneehöhe (cm)
Do, 09.12. 1:00 -
Mi, 08.12. 19:00 -
Mi, 08.12. 13:00 -
Mi, 08.12. 7:00 -
Mi, 08.12. 1:00 -
Di, 07.12. 19:00 -
Di, 07.12. 13:00 -
Di, 07.12. 7:00 -
Ortszeit Schneehöhe (cm)
Do, 09.12. 6:00 -
Do, 09.12. 5:00 -
Do, 09.12. 4:00 -
Do, 09.12. 3:00 -
Do, 09.12. 2:00 -
Do, 09.12. 1:00 -
Link zu dieser Seite / Seite empfehlen

Das Wetter in ...